sensor_id;sensor_type;location;lat;lon;timestamp;pressure;altitude;pressure_sealevel;temperature;humidity
51067;BME280;37112;45.892;-123.962;2023-04-09T00:00:00;101520.02;;;9.93;94.02
51067;BME280;37112;45.892;-123.962;2023-04-09T00:02:38;101521.86;;;9.92;93.98
51067;BME280;37112;45.892;-123.962;2023-04-09T00:04:48;101524.59;;;9.90;93.78
51067;BME280;37112;45.892;-123.962;2023-04-09T00:06:58;101525.58;;;9.88;93.72
51067;BME280;37112;45.892;-123.962;2023-04-09T00:09:08;101512.92;;;9.86;93.93
51067;BME280;37112;45.892;-123.962;2023-04-09T00:11:18;101519.90;;;9.85;93.95
51067;BME280;37112;45.892;-123.962;2023-04-09T00:13:28;101528.21;;;9.85;93.90
51067;BME280;37112;45.892;-123.962;2023-04-09T00:15:46;101527.46;;;9.86;94.02
51067;BME280;37112;45.892;-123.962;2023-04-09T00:17:56;101527.23;;;9.87;94.15
51067;BME280;37112;45.892;-123.962;2023-04-09T00:20:08;101517.70;;;9.90;94.15
51067;BME280;37112;45.892;-123.962;2023-04-09T00:22:18;101517.15;;;9.93;94.66
51067;BME280;37112;45.892;-123.962;2023-04-09T00:24:28;101514.56;;;9.92;94.08
51067;BME280;37112;45.892;-123.962;2023-04-09T00:26:38;101505.63;;;9.90;94.16
51067;BME280;37112;45.892;-123.962;2023-04-09T00:28:48;101513.41;;;9.87;93.72
51067;BME280;37112;45.892;-123.962;2023-04-09T00:30:59;101513.09;;;9.86;93.82
51067;BME280;37112;45.892;-123.962;2023-04-09T00:33:10;101516.05;;;9.87;94.12
51067;BME280;37112;45.892;-123.962;2023-04-09T00:35:20;101514.63;;;9.87;93.87
51067;BME280;37112;45.892;-123.962;2023-04-09T00:37:30;101516.74;;;9.84;93.66
51067;BME280;37112;45.892;-123.962;2023-04-09T00:39:43;101520.52;;;9.83;93.62
51067;BME280;37112;45.892;-123.962;2023-04-09T00:41:58;101517.55;;;9.83;93.94
51067;BME280;37112;45.892;-123.962;2023-04-09T00:44:09;101524.55;;;9.81;93.64
51067;BME280;37112;45.892;-123.962;2023-04-09T00:46:19;101524.92;;;9.81;93.51
51067;BME280;37112;45.892;-123.962;2023-04-09T00:48:29;101523.84;;;9.81;93.65
51067;BME280;37112;45.892;-123.962;2023-04-09T00:50:39;101522.30;;;9.80;93.57
51067;BME280;37112;45.892;-123.962;2023-04-09T00:52:50;101507.77;;;9.76;93.52
51067;BME280;37112;45.892;-123.962;2023-04-09T00:55:02;101520.90;;;9.72;93.55
51067;BME280;37112;45.892;-123.962;2023-04-09T00:57:13;101528.12;;;9.70;93.88
51067;BME280;37112;45.892;-123.962;2023-04-09T00:59:24;101533.59;;;9.67;93.81
51067;BME280;37112;45.892;-123.962;2023-04-09T01:01:35;101530.34;;;9.65;94.07
51067;BME280;37112;45.892;-123.962;2023-04-09T01:03:45;101530.64;;;9.62;93.89
51067;BME280;37112;45.892;-123.962;2023-04-09T01:06:02;101532.60;;;9.62;93.86
51067;BME280;37112;45.892;-123.962;2023-04-09T01:08:22;101534.23;;;9.62;93.93
51067;BME280;37112;45.892;-123.962;2023-04-09T01:10:41;101534.02;;;9.62;93.80
51067;BME280;37112;45.892;-123.962;2023-04-09T01:12:59;101537.16;;;9.63;93.85
51067;BME280;37112;45.892;-123.962;2023-04-09T01:15:16;101529.76;;;9.62;93.91
51067;BME280;37112;45.892;-123.962;2023-04-09T01:17:34;101529.84;;;9.61;94.29
51067;BME280;37112;45.892;-123.962;2023-04-09T01:19:50;101530.82;;;9.59;94.00
51067;BME280;37112;45.892;-123.962;2023-04-09T01:22:04;101528.73;;;9.58;94.29
51067;BME280;37112;45.892;-123.962;2023-04-09T01:24:31;101531.42;;;9.58;94.10
51067;BME280;37112;45.892;-123.962;2023-04-09T01:26:55;101531.05;;;9.58;93.99
51067;BME280;37112;45.892;-123.962;2023-04-09T01:29:21;101529.66;;;9.57;94.18
51067;BME280;37112;45.892;-123.962;2023-04-09T01:31:33;101538.13;;;9.58;94.03
51067;BME280;37112;45.892;-123.962;2023-04-09T01:33:44;101536.84;;;9.59;94.22
51067;BME280;37112;45.892;-123.962;2023-04-09T01:35:55;101532.45;;;9.58;94.37
51067;BME280;37112;45.892;-123.962;2023-04-09T01:38:06;101540.40;;;9.55;94.27
51067;BME280;37112;45.892;-123.962;2023-04-09T01:40:17;101535.92;;;9.53;94.26
51067;BME280;37112;45.892;-123.962;2023-04-09T01:42:28;101534.63;;;9.50;94.62
51067;BME280;37112;45.892;-123.962;2023-04-09T01:44:40;101535.91;;;9.48;94.45
51067;BME280;37112;45.892;-123.962;2023-04-09T01:46:49;101527.95;;;9.49;94.52
51067;BME280;37112;45.892;-123.962;2023-04-09T01:49:00;101525.67;;;9.48;94.78
51067;BME280;37112;45.892;-123.962;2023-04-09T01:51:10;101523.98;;;9.46;94.45
51067;BME280;37112;45.892;-123.962;2023-04-09T01:53:22;101519.95;;;9.45;94.42
51067;BME280;37112;45.892;-123.962;2023-04-09T01:55:35;101508.93;;;9.46;94.62
51067;BME280;37112;45.892;-123.962;2023-04-09T01:57:46;101503.14;;;9.45;94.51
51067;BME280;37112;45.892;-123.962;2023-04-09T01:59:56;101512.97;;;9.43;94.30
51067;BME280;37112;45.892;-123.962;2023-04-09T02:02:10;101507.14;;;9.43;94.50
51067;BME280;37112;45.892;-123.962;2023-04-09T02:04:25;101513.28;;;9.41;94.68
51067;BME280;37112;45.892;-123.962;2023-04-09T02:06:41;101514.48;;;9.38;94.80
51067;BME280;37112;45.892;-123.962;2023-04-09T02:08:54;101516.08;;;9.35;94.77
51067;BME280;37112;45.892;-123.962;2023-04-09T02:11:06;101519.86;;;9.33;94.86
51067;BME280;37112;45.892;-123.962;2023-04-09T02:13:19;101514.41;;;9.32;94.86
51067;BME280;37112;45.892;-123.962;2023-04-09T02:15:32;101513.02;;;9.32;94.78
51067;BME280;37112;45.892;-123.962;2023-04-09T02:17:43;101516.26;;;9.31;94.88
51067;BME280;37112;45.892;-123.962;2023-04-09T02:19:53;101522.67;;;9.30;94.86
51067;BME280;37112;45.892;-123.962;2023-04-09T02:22:05;101522.39;;;9.29;95.01
51067;BME280;37112;45.892;-123.962;2023-04-09T02:24:15;101517.31;;;9.28;94.99
51067;BME280;37112;45.892;-123.962;2023-04-09T02:26:25;101515.88;;;9.28;94.71
51067;BME280;37112;45.892;-123.962;2023-04-09T02:28:37;101527.08;;;9.28;94.81
51067;BME280;37112;45.892;-123.962;2023-04-09T02:30:48;101517.49;;;9.28;94.63
51067;BME280;37112;45.892;-123.962;2023-04-09T02:32:59;101527.48;;;9.27;94.60
51067;BME280;37112;45.892;-123.962;2023-04-09T02:35:10;101514.20;;;9.26;94.38
51067;BME280;37112;45.892;-123.962;2023-04-09T02:37:21;101512.61;;;9.26;94.34
51067;BME280;37112;45.892;-123.962;2023-04-09T02:39:31;101514.02;;;9.26;94.38
51067;BME280;37112;45.892;-123.962;2023-04-09T02:41:41;101511.17;;;9.27;94.27
51067;BME280;37112;45.892;-123.962;2023-04-09T02:43:51;101510.86;;;9.26;93.94
51067;BME280;37112;45.892;-123.962;2023-04-09T02:46:02;101518.64;;;9.26;94.10
51067;BME280;37112;45.892;-123.962;2023-04-09T02:48:13;101514.17;;;9.27;94.13
51067;BME280;37112;45.892;-123.962;2023-04-09T02:50:24;101521.09;;;9.27;94.14
51067;BME280;37112;45.892;-123.962;2023-04-09T02:52:36;101515.75;;;9.27;94.05
51067;BME280;37112;45.892;-123.962;2023-04-09T02:54:46;101515.36;;;9.28;94.21
51067;BME280;37112;45.892;-123.962;2023-04-09T02:56:56;101515.54;;;9.28;94.13
51067;BME280;37112;45.892;-123.962;2023-04-09T02:59:06;101511.69;;;9.27;93.94
51067;BME280;37112;45.892;-123.962;2023-04-09T03:01:17;101507.83;;;9.26;94.08
51067;BME280;37112;45.892;-123.962;2023-04-09T03:03:28;101513.87;;;9.25;93.92
51067;BME280;37112;45.892;-123.962;2023-04-09T03:05:39;101514.45;;;9.25;93.92
51067;BME280;37112;45.892;-123.962;2023-04-09T03:07:49;101516.56;;;9.25;93.90
51067;BME280;37112;45.892;-123.962;2023-04-09T03:09:59;101515.86;;;9.25;94.11
51067;BME280;37112;45.892;-123.962;2023-04-09T03:12:09;101519.61;;;9.24;93.91
51067;BME280;37112;45.892;-123.962;2023-04-09T03:14:19;101524.05;;;9.24;93.88
51067;BME280;37112;45.892;-123.962;2023-04-09T03:16:29;101520.68;;;9.24;93.83
51067;BME280;37112;45.892;-123.962;2023-04-09T03:18:39;101524.42;;;9.24;93.93
51067;BME280;37112;45.892;-123.962;2023-04-09T03:20:49;101514.33;;;9.24;93.97
51067;BME280;37112;45.892;-123.962;2023-04-09T03:22:59;101514.90;;;9.23;93.84
51067;BME280;37112;45.892;-123.962;2023-04-09T03:25:13;101521.48;;;9.22;93.87
51067;BME280;37112;45.892;-123.962;2023-04-09T03:27:24;101521.09;;;9.23;93.84
51067;BME280;37112;45.892;-123.962;2023-04-09T03:29:35;101527.27;;;9.23;93.89
51067;BME280;37112;45.892;-123.962;2023-04-09T03:31:46;101533.26;;;9.24;93.87
51067;BME280;37112;45.892;-123.962;2023-04-09T03:33:56;101536.46;;;9.24;94.06
51067;BME280;37112;45.892;-123.962;2023-04-09T03:36:08;101540.75;;;9.23;93.94
51067;BME280;37112;45.892;-123.962;2023-04-09T03:38:27;101552.10;;;9.23;93.98
51067;BME280;37112;45.892;-123.962;2023-04-09T03:40:38;101548.42;;;9.22;93.95
51067;BME280;37112;45.892;-123.962;2023-04-09T03:42:49;101551.25;;;9.22;93.98
51067;BME280;37112;45.892;-123.962;2023-04-09T03:44:59;101560.19;;;9.20;93.96
51067;BME280;37112;45.892;-123.962;2023-04-09T03:47:18;101565.36;;;9.20;93.98
51067;BME280;37112;45.892;-123.962;2023-04-09T03:49:28;101571.77;;;9.19;94.05
51067;BME280;37112;45.892;-123.962;2023-04-09T03:51:45;101564.89;;;9.18;93.92
51067;BME280;37112;45.892;-123.962;2023-04-09T03:53:55;101566.63;;;9.19;93.88
51067;BME280;37112;45.892;-123.962;2023-04-09T03:56:07;101570.28;;;9.20;94.00
51067;BME280;37112;45.892;-123.962;2023-04-09T03:58:18;101578.43;;;9.20;94.13
51067;BME280;37112;45.892;-123.962;2023-04-09T04:00:29;101580.05;;;9.20;93.99
51067;BME280;37112;45.892;-123.962;2023-04-09T04:03:02;101580.39;;;9.20;94.15
51067;BME280;37112;45.892;-123.962;2023-04-09T04:05:31;101581.02;;;9.22;94.04
51067;BME280;37112;45.892;-123.962;2023-04-09T04:07:42;101579.52;;;9.20;93.99
51067;BME280;37112;45.892;-123.962;2023-04-09T04:09:56;101591.98;;;9.19;94.00
51067;BME280;37112;45.892;-123.962;2023-04-09T04:12:07;101592.38;;;9.17;94.36
51067;BME280;37112;45.892;-123.962;2023-04-09T04:14:43;101601.45;;;9.17;94.29
51067;BME280;37112;45.892;-123.962;2023-04-09T04:17:02;101598.08;;;9.17;94.23
51067;BME280;37112;45.892;-123.962;2023-04-09T04:19:12;101596.67;;;9.17;94.31
51067;BME280;37112;45.892;-123.962;2023-04-09T04:21:25;101596.11;;;9.17;94.31
51067;BME280;37112;45.892;-123.962;2023-04-09T04:23:39;101590.81;;;9.17;94.40
51067;BME280;37112;45.892;-123.962;2023-04-09T04:25:58;101590.36;;;9.15;94.39
51067;BME280;37112;45.892;-123.962;2023-04-09T04:28:12;101593.73;;;9.15;94.58
51067;BME280;37112;45.892;-123.962;2023-04-09T04:30:23;101589.11;;;9.15;94.57
51067;BME280;37112;45.892;-123.962;2023-04-09T04:32:38;101581.53;;;9.15;94.55
51067;BME280;37112;45.892;-123.962;2023-04-09T04:34:51;101586.97;;;9.16;94.53
51067;BME280;37112;45.892;-123.962;2023-04-09T04:37:04;101588.67;;;9.17;94.53
51067;BME280;37112;45.892;-123.962;2023-04-09T04:39:14;101583.85;;;9.18;94.67
51067;BME280;37112;45.892;-123.962;2023-04-09T04:41:38;101589.80;;;9.20;94.61
51067;BME280;37112;45.892;-123.962;2023-04-09T04:43:52;101588.64;;;9.22;94.64
51067;BME280;37112;45.892;-123.962;2023-04-09T04:46:03;101588.19;;;9.24;94.64
51067;BME280;37112;45.892;-123.962;2023-04-09T04:48:13;101591.45;;;9.27;94.48
51067;BME280;37112;45.892;-123.962;2023-04-09T04:50:23;101593.00;;;9.27;94.56
51067;BME280;37112;45.892;-123.962;2023-04-09T04:52:38;101599.14;;;9.29;94.41
51067;BME280;37112;45.892;-123.962;2023-04-09T04:54:48;101598.58;;;9.29;94.30
51067;BME280;37112;45.892;-123.962;2023-04-09T04:57:01;101597.66;;;9.30;94.35
51067;BME280;37112;45.892;-123.962;2023-04-09T04:59:18;101601.65;;;9.31;94.22
51067;BME280;37112;45.892;-123.962;2023-04-09T05:01:46;101601.81;;;9.32;94.10
51067;BME280;37112;45.892;-123.962;2023-04-09T05:03:56;101596.89;;;9.31;94.20
51067;BME280;37112;45.892;-123.962;2023-04-09T05:06:15;101593.38;;;9.31;94.05
51067;BME280;37112;45.892;-123.962;2023-04-09T05:08:25;101586.52;;;9.29;94.22
51067;BME280;37112;45.892;-123.962;2023-04-09T05:10:39;101589.58;;;9.29;94.19
51067;BME280;37112;45.892;-123.962;2023-04-09T05:12:49;101589.05;;;9.28;93.97
51067;BME280;37112;45.892;-123.962;2023-04-09T05:15:07;101586.73;;;9.29;94.18
51067;BME280;37112;45.892;-123.962;2023-04-09T05:17:17;101585.69;;;9.28;94.04
51067;BME280;37112;45.892;-123.962;2023-04-09T05:19:27;101578.98;;;9.28;94.18
51067;BME280;37112;45.892;-123.962;2023-04-09T05:21:40;101576.58;;;9.26;94.09
51067;BME280;37112;45.892;-123.962;2023-04-09T05:23:52;101582.12;;;9.25;94.31
51067;BME280;37112;45.892;-123.962;2023-04-09T05:26:03;101577.73;;;9.24;94.36
51067;BME280;37112;45.892;-123.962;2023-04-09T05:28:23;101572.64;;;9.23;94.50
51067;BME280;37112;45.892;-123.962;2023-04-09T05:30:42;101571.65;;;9.21;94.40
51067;BME280;37112;45.892;-123.962;2023-04-09T05:32:55;101568.45;;;9.21;94.44
51067;BME280;37112;45.892;-123.962;2023-04-09T05:35:07;101567.58;;;9.21;94.60
51067;BME280;37112;45.892;-123.962;2023-04-09T05:37:19;101563.84;;;9.22;94.61
51067;BME280;37112;45.892;-123.962;2023-04-09T05:39:33;101563.41;;;9.23;94.79
51067;BME280;37112;45.892;-123.962;2023-04-09T05:41:43;101561.96;;;9.24;94.69
51067;BME280;37112;45.892;-123.962;2023-04-09T05:44:16;101567.59;;;9.25;94.89
51067;BME280;37112;45.892;-123.962;2023-04-09T05:46:27;101564.04;;;9.25;94.83
51067;BME280;37112;45.892;-123.962;2023-04-09T05:48:37;101561.52;;;9.26;95.02
51067;BME280;37112;45.892;-123.962;2023-04-09T05:50:52;101556.70;;;9.27;95.29
51067;BME280;37112;45.892;-123.962;2023-04-09T05:53:05;101561.09;;;9.28;95.45
51067;BME280;37112;45.892;-123.962;2023-04-09T05:55:18;101549.73;;;9.28;95.49
51067;BME280;37112;45.892;-123.962;2023-04-09T05:57:33;101551.79;;;9.29;95.72
51067;BME280;37112;45.892;-123.962;2023-04-09T05:59:43;101546.07;;;9.30;95.63
51067;BME280;37112;45.892;-123.962;2023-04-09T06:01:55;101543.36;;;9.31;95.78
51067;BME280;37112;45.892;-123.962;2023-04-09T06:04:05;101545.78;;;9.32;95.77
51067;BME280;37112;45.892;-123.962;2023-04-09T06:06:15;101547.86;;;9.33;95.92
51067;BME280;37112;45.892;-123.962;2023-04-09T06:08:25;101545.38;;;9.33;96.10
51067;BME280;37112;45.892;-123.962;2023-04-09T06:10:35;101547.14;;;9.34;96.18
51067;BME280;37112;45.892;-123.962;2023-04-09T06:12:47;101538.13;;;9.33;96.11
51067;BME280;37112;45.892;-123.962;2023-04-09T06:14:57;101533.55;;;9.32;96.53
51067;BME280;37112;45.892;-123.962;2023-04-09T06:17:06;101535.13;;;9.33;96.15
51067;BME280;37112;45.892;-123.962;2023-04-09T06:19:18;101535.08;;;9.33;96.25
51067;BME280;37112;45.892;-123.962;2023-04-09T06:21:28;101535.26;;;9.34;96.49
51067;BME280;37112;45.892;-123.962;2023-04-09T06:23:38;101533.14;;;9.33;96.29
51067;BME280;37112;45.892;-123.962;2023-04-09T06:25:49;101531.86;;;9.34;96.28
51067;BME280;37112;45.892;-123.962;2023-04-09T06:28:00;101531.52;;;9.35;96.33
51067;BME280;37112;45.892;-123.962;2023-04-09T06:30:12;101532.40;;;9.34;96.55
51067;BME280;37112;45.892;-123.962;2023-04-09T06:32:22;101526.39;;;9.34;96.32
51067;BME280;37112;45.892;-123.962;2023-04-09T06:34:32;101529.39;;;9.34;96.35
51067;BME280;37112;45.892;-123.962;2023-04-09T06:36:42;101526.71;;;9.35;96.28
51067;BME280;37112;45.892;-123.962;2023-04-09T06:38:52;101526.85;;;9.36;96.41
51067;BME280;37112;45.892;-123.962;2023-04-09T06:41:04;101526.84;;;9.36;96.38
51067;BME280;37112;45.892;-123.962;2023-04-09T06:43:15;101535.69;;;9.36;96.48
51067;BME280;37112;45.892;-123.962;2023-04-09T06:45:30;101533.90;;;9.36;96.81
51067;BME280;37112;45.892;-123.962;2023-04-09T06:47:40;101528.57;;;9.36;96.80
51067;BME280;37112;45.892;-123.962;2023-04-09T06:49:50;101527.83;;;9.37;96.67
51067;BME280;37112;45.892;-123.962;2023-04-09T06:52:00;101523.85;;;9.39;96.90
51067;BME280;37112;45.892;-123.962;2023-04-09T06:54:10;101533.55;;;9.39;96.62
51067;BME280;37112;45.892;-123.962;2023-04-09T06:56:20;101533.52;;;9.40;97.07
51067;BME280;37112;45.892;-123.962;2023-04-09T06:58:30;101537.34;;;9.41;96.88
51067;BME280;37112;45.892;-123.962;2023-04-09T07:00:40;101541.23;;;9.42;96.90
51067;BME280;37112;45.892;-123.962;2023-04-09T07:02:50;101547.36;;;9.43;96.89
51067;BME280;37112;45.892;-123.962;2023-04-09T07:05:01;101551.16;;;9.45;96.78
51067;BME280;37112;45.892;-123.962;2023-04-09T07:07:11;101554.85;;;9.46;97.09
51067;BME280;37112;45.892;-123.962;2023-04-09T07:09:20;101552.88;;;9.46;96.73
51067;BME280;37112;45.892;-123.962;2023-04-09T07:11:30;101557.79;;;9.47;96.75
51067;BME280;37112;45.892;-123.962;2023-04-09T07:13:40;101563.97;;;9.48;96.63
51067;BME280;37112;45.892;-123.962;2023-04-09T07:15:51;101565.02;;;9.48;96.66
51067;BME280;37112;45.892;-123.962;2023-04-09T07:18:01;101564.50;;;9.48;96.57
51067;BME280;37112;45.892;-123.962;2023-04-09T07:20:12;101560.63;;;9.47;96.56
51067;BME280;37112;45.892;-123.962;2023-04-09T07:22:23;101565.98;;;9.47;96.42
51067;BME280;37112;45.892;-123.962;2023-04-09T07:24:34;101571.55;;;9.45;96.57
51067;BME280;37112;45.892;-123.962;2023-04-09T07:26:44;101573.75;;;9.44;96.59
51067;BME280;37112;45.892;-123.962;2023-04-09T07:28:57;101576.98;;;9.43;96.63
51067;BME280;37112;45.892;-123.962;2023-04-09T07:31:07;101582.87;;;9.42;96.65
51067;BME280;37112;45.892;-123.962;2023-04-09T07:33:17;101588.36;;;9.42;96.81
51067;BME280;37112;45.892;-123.962;2023-04-09T07:35:28;101588.92;;;9.42;96.87
51067;BME280;37112;45.892;-123.962;2023-04-09T07:37:39;101581.52;;;9.41;97.39
51067;BME280;37112;45.892;-123.962;2023-04-09T07:39:49;101584.39;;;9.40;97.28
51067;BME280;37112;45.892;-123.962;2023-04-09T07:42:03;101584.79;;;9.39;97.54
51067;BME280;37112;45.892;-123.962;2023-04-09T07:44:13;101586.73;;;9.39;97.44
51067;BME280;37112;45.892;-123.962;2023-04-09T07:46:23;101587.29;;;9.39;97.33
51067;BME280;37112;45.892;-123.962;2023-04-09T07:48:33;101589.73;;;9.40;97.33
51067;BME280;37112;45.892;-123.962;2023-04-09T07:50:44;101589.52;;;9.40;97.44
51067;BME280;37112;45.892;-123.962;2023-04-09T07:52:54;101586.66;;;9.40;98.03
51067;BME280;37112;45.892;-123.962;2023-04-09T07:55:05;101580.63;;;9.41;97.68
51067;BME280;37112;45.892;-123.962;2023-04-09T07:57:15;101582.02;;;9.41;97.92
51067;BME280;37112;45.892;-123.962;2023-04-09T07:59:25;101585.02;;;9.42;98.38
51067;BME280;37112;45.892;-123.962;2023-04-09T08:01:35;101579.90;;;9.41;98.88
51067;BME280;37112;45.892;-123.962;2023-04-09T08:03:45;101581.22;;;9.40;99.33
51067;BME280;37112;45.892;-123.962;2023-04-09T08:05:55;101584.39;;;9.40;98.85
51067;BME280;37112;45.892;-123.962;2023-04-09T08:08:06;101577.12;;;9.40;98.80
51067;BME280;37112;45.892;-123.962;2023-04-09T08:10:17;101574.24;;;9.41;98.70
51067;BME280;37112;45.892;-123.962;2023-04-09T08:12:27;101581.48;;;9.42;99.60
51067;BME280;37112;45.892;-123.962;2023-04-09T08:14:37;101576.67;;;9.42;99.13
51067;BME280;37112;45.892;-123.962;2023-04-09T08:16:48;101574.67;;;9.43;99.12
51067;BME280;37112;45.892;-123.962;2023-04-09T08:18:57;101576.42;;;9.44;99.27
51067;BME280;37112;45.892;-123.962;2023-04-09T08:21:07;101575.33;;;9.44;99.03
51067;BME280;37112;45.892;-123.962;2023-04-09T08:23:18;101572.98;;;9.45;99.29
51067;BME280;37112;45.892;-123.962;2023-04-09T08:25:28;101571.16;;;9.46;99.20
51067;BME280;37112;45.892;-123.962;2023-04-09T08:27:38;101573.02;;;9.48;99.30
51067;BME280;37112;45.892;-123.962;2023-04-09T08:29:49;101572.60;;;9.49;99.56
51067;BME280;37112;45.892;-123.962;2023-04-09T08:32:02;101571.81;;;9.51;99.67
51067;BME280;37112;45.892;-123.962;2023-04-09T08:34:11;101573.33;;;9.53;99.93
51067;BME280;37112;45.892;-123.962;2023-04-09T08:36:23;101566.46;;;9.55;99.94
51067;BME280;37112;45.892;-123.962;2023-04-09T08:38:33;101567.29;;;9.56;99.88
51067;BME280;37112;45.892;-123.962;2023-04-09T08:40:43;101563.72;;;9.57;100.00
51067;BME280;37112;45.892;-123.962;2023-04-09T08:42:55;101562.10;;;9.57;100.00
51067;BME280;37112;45.892;-123.962;2023-04-09T08:45:07;101564.38;;;9.58;99.98
51067;BME280;37112;45.892;-123.962;2023-04-09T08:47:21;101558.46;;;9.59;100.00
51067;BME280;37112;45.892;-123.962;2023-04-09T08:49:31;101557.03;;;9.60;100.00
51067;BME280;37112;45.892;-123.962;2023-04-09T08:51:46;101565.69;;;9.60;99.91
51067;BME280;37112;45.892;-123.962;2023-04-09T08:53:58;101564.77;;;9.61;100.00
51067;BME280;37112;45.892;-123.962;2023-04-09T08:56:11;101574.45;;;9.62;100.00
51067;BME280;37112;45.892;-123.962;2023-04-09T08:58:22;101570.19;;;9.62;100.00
51067;BME280;37112;45.892;-123.962;2023-04-09T09:00:32;101569.99;;;9.62;100.00
51067;BME280;37112;45.892;-123.962;2023-04-09T09:03:02;101572.27;;;9.63;100.00
51067;BME280;37112;45.892;-123.962;2023-04-09T09:05:14;101573.30;;;9.63;100.00
51067;BME280;37112;45.892;-123.962;2023-04-09T09:07:24;101562.84;;;9.63;100.00
51067;BME280;37112;45.892;-123.962;2023-04-09T09:09:51;101558.25;;;9.63;100.00
51067;BME280;37112;45.892;-123.962;2023-04-09T09:12:02;101557.65;;;9.64;100.00
51067;BME280;37112;45.892;-123.962;2023-04-09T09:14:13;101557.98;;;9.65;100.00
51067;BME280;37112;45.892;-123.962;2023-04-09T09:16:23;101550.19;;;9.65;100.00
51067;BME280;37112;45.892;-123.962;2023-04-09T09:18:41;101549.48;;;9.65;100.00
51067;BME280;37112;45.892;-123.962;2023-04-09T09:20:52;101549.66;;;9.65;100.00
51067;BME280;37112;45.892;-123.962;2023-04-09T09:23:13;101545.77;;;9.64;100.00
51067;BME280;37112;45.892;-123.962;2023-04-09T09:25:23;101552.11;;;9.65;100.00
51067;BME280;37112;45.892;-123.962;2023-04-09T09:27:34;101559.17;;;9.66;100.00
51067;BME280;37112;45.892;-123.962;2023-04-09T09:29:46;101545.73;;;9.66;100.00
51067;BME280;37112;45.892;-123.962;2023-04-09T09:31:56;101549.45;;;9.65;100.00
51067;BME280;37112;45.892;-123.962;2023-04-09T09:34:10;101543.41;;;9.66;100.00
51067;BME280;37112;45.892;-123.962;2023-04-09T09:36:33;101536.51;;;9.66;100.00
51067;BME280;37112;45.892;-123.962;2023-04-09T09:38:56;101543.78;;;9.66;100.00
51067;BME280;37112;45.892;-123.962;2023-04-09T09:41:18;101545.16;;;9.66;100.00
51067;BME280;37112;45.892;-123.962;2023-04-09T09:43:41;101540.64;;;9.68;100.00
51067;BME280;37112;45.892;-123.962;2023-04-09T09:45:51;101528.73;;;9.68;100.00
51067;BME280;37112;45.892;-123.962;2023-04-09T09:48:03;101533.48;;;9.69;100.00
51067;BME280;37112;45.892;-123.962;2023-04-09T09:50:13;101533.45;;;9.69;100.00
51067;BME280;37112;45.892;-123.962;2023-04-09T09:52:26;101525.63;;;9.70;100.00
51067;BME280;37112;45.892;-123.962;2023-04-09T09:54:41;101526.88;;;9.70;100.00
51067;BME280;37112;45.892;-123.962;2023-04-09T09:56:53;101518.90;;;9.70;100.00
51067;BME280;37112;45.892;-123.962;2023-04-09T09:59:09;101518.71;;;9.70;100.00
51067;BME280;37112;45.892;-123.962;2023-04-09T10:01:22;101512.89;;;9.69;100.00
51067;BME280;37112;45.892;-123.962;2023-04-09T10:03:35;101517.09;;;9.70;100.00
51067;BME280;37112;45.892;-123.962;2023-04-09T10:05:49;101521.62;;;9.72;100.00
51067;BME280;37112;45.892;-123.962;2023-04-09T10:08:01;101509.52;;;9.73;100.00
51067;BME280;37112;45.892;-123.962;2023-04-09T10:10:12;101508.43;;;9.74;100.00
51067;BME280;37112;45.892;-123.962;2023-04-09T10:12:22;101511.91;;;9.75;100.00
51067;BME280;37112;45.892;-123.962;2023-04-09T10:14:34;101508.47;;;9.76;100.00
51067;BME280;37112;45.892;-123.962;2023-04-09T10:16:45;101510.05;;;9.76;100.00
51067;BME280;37112;45.892;-123.962;2023-04-09T10:18:56;101506.83;;;9.77;100.00
51067;BME280;37112;45.892;-123.962;2023-04-09T10:21:11;101511.75;;;9.77;100.00
51067;BME280;37112;45.892;-123.962;2023-04-09T10:23:31;101504.79;;;9.78;100.00
51067;BME280;37112;45.892;-123.962;2023-04-09T10:25:42;101503.03;;;9.78;100.00
51067;BME280;37112;45.892;-123.962;2023-04-09T10:28:02;101504.77;;;9.79;100.00
51067;BME280;37112;45.892;-123.962;2023-04-09T10:30:37;101504.94;;;9.79;100.00
51067;BME280;37112;45.892;-123.962;2023-04-09T10:32:47;101508.10;;;9.80;100.00
51067;BME280;37112;45.892;-123.962;2023-04-09T10:34:59;101515.01;;;9.80;100.00
51067;BME280;37112;45.892;-123.962;2023-04-09T10:37:16;101512.52;;;9.80;100.00
51067;BME280;37112;45.892;-123.962;2023-04-09T10:39:31;101511.80;;;9.81;100.00
51067;BME280;37112;45.892;-123.962;2023-04-09T10:41:42;101505.94;;;9.81;100.00
51067;BME280;37112;45.892;-123.962;2023-04-09T10:43:53;101508.94;;;9.81;100.00
51067;BME280;37112;45.892;-123.962;2023-04-09T10:46:06;101509.68;;;9.80;100.00
51067;BME280;37112;45.892;-123.962;2023-04-09T10:48:20;101508.44;;;9.81;100.00
51067;BME280;37112;45.892;-123.962;2023-04-09T10:50:33;101504.47;;;9.82;100.00
51067;BME280;37112;45.892;-123.962;2023-04-09T10:52:44;101503.90;;;9.83;100.00
51067;BME280;37112;45.892;-123.962;2023-04-09T10:54:54;101504.43;;;9.82;100.00
51067;BME280;37112;45.892;-123.962;2023-04-09T10:57:23;101505.88;;;9.82;100.00
51067;BME280;37112;45.892;-123.962;2023-04-09T10:59:33;101499.10;;;9.83;100.00
51067;BME280;37112;45.892;-123.962;2023-04-09T11:01:53;101500.88;;;9.83;100.00
51067;BME280;37112;45.892;-123.962;2023-04-09T11:04:14;101498.22;;;9.83;100.00
51067;BME280;37112;45.892;-123.962;2023-04-09T11:06:25;101493.09;;;9.82;100.00
51067;BME280;37112;45.892;-123.962;2023-04-09T11:08:35;101490.03;;;9.83;100.00
51067;BME280;37112;45.892;-123.962;2023-04-09T11:10:46;101493.04;;;9.83;100.00
51067;BME280;37112;45.892;-123.962;2023-04-09T11:12:59;101489.67;;;9.83;100.00